Midway, Pennsylvania
Current Conditions -  °F | °C
As of 9:51 AM on Monday 24 Nov 2014 (Local Time) from KPIT Reporting Station
Broken Clouds Broken Clouds  
Wind Chill: 65°   Ceiling: 4200
Heat Index: 65°   Visibility: 10mi
Dew Point: 49°   Wind: 20mph
Humidity: 56%   Direction: 210°SSW
Pressure: 29.42"   Gusts: 38mph
Location:  40.37°N, 80.3°W
Report Text: KPIT 241451Z 21017G33KT 10SM BKN042 BKN060 18/09 A2942 RMK AO2 PK WND 20033/1449 SLP965 T01830094 58008
Loading
Personal Weather Stations






























Interactive Weather Map New forecast layout! Learn more

10-Day Weather Forecast

Advertisements
Track Severe Weather on mobile